Time;durP1;ratioP1;P1;durP2;ratioP2;P2;SDS_P1;SDS_P2;PMS_P1;PMS_P2;Temp;Humidity;BMP_temperature;BMP_pressure;BME280_temperature;BME280_humidity;BME280_pressure;Samples;Min_cycle;Max_cycle;Signal;HPM_P1;HPM_P2
2023/06/23 00:01:13;;;;;;;;;;;23.10;46.50;;;22.24;43.99;100816.72;12251889;19;19933;-91
2023/06/23 00:05:15;;;;;;;;;;;23.00;46.00;;;22.23;43.90;100847.00;12249775;19;20325;-91
2023/06/23 00:09:18;;;;;;;;;;;22.90;46.40;;;22.31;43.74;100883.47;12252659;19;19924;-90
2023/06/23 00:13:19;;;;;;;;;;;22.90;46.90;;;22.33;44.03;100893.94;12248840;19;19927;-92
2023/06/23 00:17:21;;;;;;;;;;;22.90;46.40;;;22.24;43.69;100879.75;12251171;19;19927;-92
2023/06/23 00:21:23;;;;;;;;;;;22.90;46.00;;;22.35;44.12;100905.25;12247829;19;19943;-91
2023/06/23 00:25:24;;;;;;;;;;;22.90;46.60;;;22.40;44.29;100906.47;12248416;19;20244;-92
2023/06/23 00:29:26;;;;;;;;;;;22.90;46.30;;;22.28;44.14;100865.16;12251803;19;19915;-91
2023/06/23 00:33:27;;;;;;;;;;;22.90;46.30;;;22.45;44.17;100892.69;12245959;19;19934;-92
2023/06/23 00:37:30;;;;;;;;;;;23.00;46.40;;;22.26;44.23;100841.34;12248769;19;19923;-93
2023/06/23 00:41:32;;;;;;;;;;;23.10;46.60;;;22.52;43.97;100867.94;12247962;19;19918;-92
2023/06/23 00:45:34;;;;;;;;;;;23.10;46.40;;;22.27;44.11;100818.25;12255623;19;19911;-92
2023/06/23 00:49:35;;;;;;;;;;;23.10;46.20;;;22.45;44.51;100848.28;12260551;19;19994;-92
2023/06/23 00:53:38;;;;;;;;;;;23.10;46.30;;;22.40;44.60;100826.63;12257339;19;20254;-91
2023/06/23 00:57:39;;;;;;;;;;;23.10;46.50;;;22.48;44.56;100818.66;12259612;19;19919;-93
2023/06/23 01:01:41;;;;;;;;;;;23.10;46.60;;;22.37;44.69;100797.69;12257605;19;19948;-92
2023/06/23 01:05:45;;;;;;;;;;;23.10;46.50;;;22.54;44.43;100828.66;12254428;19;19922;-92
2023/06/23 01:09:57;;;;;;;;;;;23.10;46.50;;;22.62;44.62;100862.47;12257946;19;19924;-92
2023/06/23 01:14:04;;;;;;;;;;;23.20;46.70;;;22.54;44.55;100876.59;12253962;19;20245;-92
2023/06/23 01:18:15;;;;;;;;;;;23.20;46.70;;;22.62;44.56;100925.53;12257227;19;20016;-92
2023/06/23 01:22:39;;;;;;;;;;;23.20;46.80;;;22.39;45.04;100914.63;12256188;19;19939;-92
2023/06/23 01:26:59;;;;;;;;;;;23.10;46.60;;;22.58;45.06;100927.69;12258912;19;19987;-93
2023/06/23 01:31:02;;;;;;;;;;;23.10;46.70;;;22.50;44.66;100901.88;12260684;19;19923;-93
2023/06/23 01:35:09;;;;;;;;;;;23.10;46.70;;;22.27;44.76;100847.50;12261749;19;19922;-93
2023/06/23 01:39:13;;;;;;;;;;;23.20;46.80;;;22.35;44.68;100849.38;12264171;19;19911;-93
2023/06/23 01:43:17;;;;;;;;;;;23.20;46.60;;;22.54;45.02;100876.59;12254536;19;20258;-94
2023/06/23 01:47:24;;;;;;;;;;;23.30;46.80;;;22.21;45.24;100832.19;12255908;19;19919;-93
2023/06/23 01:51:28;;;;;;;;;;;23.30;46.70;;;22.22;45.13;100828.53;12260011;19;19911;-93
2023/06/23 01:55:31;;;;;;;;;;;23.30;47.00;;;22.26;45.41;100833.38;12256741;19;19911;-92
2023/06/23 01:59:35;;;;;;;;;;;23.30;47.10;;;22.43;45.14;100846.75;12258759;19;19925;-91
2023/06/23 02:03:38;;;;;;;;;;;23.20;46.80;;;22.19;45.32;100799.56;12255705;19;19946;-92
2023/06/23 02:07:42;;;;;;;;;;;23.20;47.00;;;22.52;45.55;100824.50;12254616;19;20326;-92
2023/06/23 02:11:44;;;;;;;;;;;23.20;47.10;;;22.46;45.52;100793.22;12258670;19;19930;-93
2023/06/23 02:15:47;;;;;;;;;;;23.20;47.20;;;22.37;45.45;100756.94;12260196;19;19956;-92
2023/06/23 02:19:51;;;;;;;;;;;23.20;47.30;;;22.26;45.70;100712.81;12259808;19;19923;-93
2023/06/23 02:23:54;;;;;;;;;;;23.20;47.30;;;22.43;45.43;100738.47;12259725;19;19914;-93
2023/06/23 02:27:56;;;;;;;;;;;23.20;47.30;;;22.15;45.36;100691.81;12256081;19;19911;-93
2023/06/23 02:32:00;;;;;;;;;;;23.10;47.20;;;22.47;45.45;100742.50;12261763;19;19918;-93
2023/06/23 02:36:06;;;;;;;;;;;23.10;47.30;;;22.22;45.43;100698.16;12257889;19;19956;-92
2023/06/23 02:40:10;;;;;;;;;;;23.10;47.50;;;22.42;45.78;100749.31;12259515;19;19946;-92
2023/06/23 02:44:15;;;;;;;;;;;23.10;47.90;;;22.28;45.99;100762.22;12258095;19;19915;-92
2023/06/23 02:48:21;;;;;;;;;;;23.10;47.60;;;22.35;45.87;100786.34;12259055;19;19943;-92
2023/06/23 02:52:25;;;;;;;;;;;23.10;47.50;;;22.23;45.92;100772.50;12259978;19;19915;-93
2023/06/23 02:56:28;;;;;;;;;;;23.10;47.60;;;22.09;45.94;100754.47;12260420;19;20400;-94
2023/06/23 03:00:30;;;;;;;;;;;23.10;47.50;;;22.35;45.98;100812.97;12260014;19;19914;-92
2023/06/23 03:04:34;;;;;;;;;;;23.10;47.60;;;22.44;45.83;100817.34;12254901;19;19948;-93
2023/06/23 03:08:36;;;;;;;;;;;23.20;47.60;;;22.24;45.98;100789.28;12256164;19;19915;-94
2023/06/23 03:12:38;;;;;;;;;;;23.10;47.50;;;22.41;46.12;100825.63;12254061;19;19926;-93
2023/06/23 03:16:46;;;;;;;;;;;23.20;48.10;;;22.18;46.27;100805.88;12253907;19;19954;-92
2023/06/23 03:20:50;;;;;;;;;;;23.10;47.80;;;22.26;46.26;100811.25;12253259;19;19919;-92
2023/06/23 03:25:02;;;;;;;;;;;23.10;47.70;;;22.45;46.46;100834.13;12249166;19;19911;-93
2023/06/23 03:29:06;;;;;;;;;;;23.10;47.90;;;22.32;46.04;100834.56;12251893;19;19918;-91
2023/06/23 03:33:14;;;;;;;;;;;23.10;47.70;;;22.38;46.46;100839.25;12249660;19;19942;-92
2023/06/23 03:37:20;;;;;;;;;;;23.00;47.80;;;22.34;46.39;100818.47;12251681;19;19956;-92
2023/06/23 03:41:22;;;;;;;;;;;23.10;47.80;;;22.40;46.64;100836.44;12251396;19;19934;-93
2023/06/23 03:45:25;;;;;;;;;;;23.00;47.80;;;22.36;46.46;100830.59;12250341;19;19932;-91
2023/06/23 03:49:41;;;;;;;;;;;23.00;47.90;;;22.36;46.28;100829.75;12250993;19;19937;-93
2023/06/23 03:53:43;;;;;;;;;;;23.00;47.90;;;22.34;46.32;100827.25;12248421;19;19919;-92
2023/06/23 03:57:47;;;;;;;;;;;23.10;48.00;;;22.38;46.63;100847.22;12250954;19;19922;-92
2023/06/23 04:01:51;;;;;;;;;;;23.10;48.00;;;22.44;46.85;100853.75;12250538;19;19915;-92
2023/06/23 04:05:54;;;;;;;;;;;23.10;48.10;;;22.25;46.41;100821.06;12249440;19;20293;-92
2023/06/23 04:09:58;;;;;;;;;;;23.10;48.30;;;22.49;46.71;100868.28;12250088;19;19928;-91
2023/06/23 04:14:00;;;;;;;;;;;23.20;48.20;;;22.22;46.64;100823.19;12246024;19;19949;-92
2023/06/23 04:22:10;;;;;;;;;;;23.20;48.20;;;22.31;47.10;100854.19;12277049;19;19923;-93
2023/06/23 04:26:16;;;;;;;;;;;23.20;48.20;;;22.18;46.58;100856.41;12285968;19;19940;-93
2023/06/23 04:30:19;;;;;;;;;;;23.20;48.20;;;22.10;46.72;100847.38;12291691;19;19917;-93
2023/06/23 04:34:21;;;;;;;;;;;23.30;48.30;;;22.19;46.93;100863.41;12291560;19;19943;-93
2023/06/23 04:38:25;;;;;;;;;;;23.30;48.30;;;22.27;47.04;100879.44;12306550;19;19911;-94
2023/06/23 04:42:33;;;;;;;;;;;23.20;48.40;;;22.56;47.04;100912.88;12297885;19;19914;-93
2023/06/23 04:46:38;;;;;;;;;;;23.30;48.30;;;22.62;47.22;100930.88;12255066;19;19919;-92
2023/06/23 04:50:41;;;;;;;;;;;23.40;48.30;;;22.29;47.26;100880.13;12255905;19;20448;-92
2023/06/23 04:54:44;;;;;;;;;;;23.40;48.30;;;22.35;46.83;100898.09;12253611;19;20353;-91
2023/06/23 04:58:50;;;;;;;;;;;23.40;48.40;;;22.60;47.03;100932.84;12270273;19;19914;-93
2023/06/23 05:02:55;;;;;;;;;;;23.40;48.50;;;22.69;47.00;100945.22;12293037;19;20285;-93
2023/06/23 05:06:57;;;;;;;;;;;23.40;48.40;;;22.40;47.08;100898.47;12270471;19;19923;-93
2023/06/23 05:11:05;;;;;;;;;;;23.40;48.60;;;22.58;47.20;100918.88;12266581;19;19922;-94
2023/06/23 05:15:08;;;;;;;;;;;23.40;48.60;;;22.56;47.37;100920.84;12263434;19;19907;-92
2023/06/23 05:19:10;;;;;;;;;;;23.40;48.80;;;22.33;47.53;100894.75;12259060;19;20009;-92
2023/06/23 05:23:13;;;;;;;;;;;23.40;49.00;;;22.34;47.60;100909.75;12256500;19;19910;-92
2023/06/23 05:27:18;;;;;;;;;;;23.30;48.80;;;22.52;47.82;100944.28;12258095;19;20035;-92
2023/06/23 05:31:21;;;;;;;;;;;23.30;48.70;;;22.65;47.26;100957.16;12260963;19;20222;-92
2023/06/23 05:35:24;;;;;;;;;;;23.30;49.00;;;22.35;47.74;100914.06;12262949;19;19914;-91
2023/06/23 05:39:27;;;;;;;;;;;23.40;48.90;;;22.58;47.47;100961.47;12264907;19;19926;-92
2023/06/23 05:43:29;;;;;;;;;;;23.40;49.00;;;22.56;47.72;100958.13;12262378;19;19923;-93
2023/06/23 05:47:53;;;;;;;;;;;23.40;49.00;;;22.73;47.43;100981.19;12261563;19;20615;-92
2023/06/23 05:51:57;;;;;;;;;;;23.40;49.00;;;22.31;47.60;100908.25;12268087;19;19926;-92
2023/06/23 05:56:05;;;;;;;;;;;23.40;49.10;;;22.36;47.76;100915.75;12267999;19;19918;-93
2023/06/23 06:00:13;;;;;;;;;;;23.40;49.10;;;22.40;47.73;100926.91;12279897;19;20352;-90
2023/06/23 06:04:17;;;;;;;;;;;23.40;49.00;;;22.57;47.49;100955.28;12269944;19;20396;-88
2023/06/23 06:08:20;;;;;;;;;;;23.40;49.40;;;22.57;47.70;100957.94;12272700;19;19949;-91
2023/06/23 06:20:59;;;;;;;;;;;23.40;49.60;;;22.58;48.21;100959.63;12246228;19;19917;-94
2023/06/23 06:25:03;;;;;;;;;;;23.40;49.20;;;22.68;47.95;100973.69;12280895;19;19918;-90
2023/06/23 06:29:06;;;;;;;;;;;23.40;49.20;;;22.56;47.97;100947.47;12261796;19;19915;-93
2023/06/23 06:33:09;;;;;;;;;;;23.40;49.40;;;22.52;47.90;100937.16;12081340;19;3577668;-93
2023/06/23 06:37:11;;;;;;;;;;;23.40;49.30;;;22.56;48.10;100947.47;12273473;19;19943;-93
2023/06/23 06:41:13;;;;;;;;;;;23.30;49.40;;;22.54;48.08;100940.47;12281658;19;19953;-94
2023/06/23 06:45:15;;;;;;;;;;;23.40;49.60;;;22.38;48.30;100897.78;12261917;19;19923;-94
2023/06/23 06:49:18;;;;;;;;;;;23.40;50.00;;;22.38;48.06;100908.44;12264446;19;19923;-93
2023/06/23 06:53:21;;;;;;;;;;;23.40;50.10;;;22.53;48.11;100930.81;12255402;19;20337;-91
2023/06/23 06:57:23;;;;;;;;;;;23.40;50.00;;;22.59;48.46;100941.84;12254802;19;19927;-92
2023/06/23 07:01:27;;;;;;;;;;;23.30;49.90;;;22.56;48.27;100939.50;12253154;19;19915;-93
2023/06/23 07:05:30;;;;;;;;;;;23.40;49.90;;;22.38;48.42;100910.25;12266531;19;19918;-94
2023/06/23 07:18:09;;;;;;;;;;;23.40;50.10;;;22.42;48.66;100909.81;12260854;19;19946;-92
2023/06/23 07:22:14;;;;;;;;;;;23.40;50.10;;;22.44;48.42;100918.47;12263870;19;19919;-94
2023/06/23 07:26:15;;;;;;;;;;;23.40;50.10;;;22.54;48.60;100940.47;12267238;19;20273;-92
2023/06/23 07:30:18;;;;;;;;;;;23.40;50.10;;;22.47;48.63;100935.97;12269022;19;19943;-93
2023/06/23 07:34:19;;;;;;;;;;;23.50;50.20;;;22.45;48.83;100930.78;12267876;19;19915;-93
2023/06/23 07:38:21;;;;;;;;;;;23.50;50.20;;;22.64;48.43;100960.84;12261547;19;19911;-92
2023/06/23 07:42:23;;;;;;;;;;;23.50;50.00;;;22.43;48.50;100940.72;12243860;19;19932;-93
2023/06/23 07:46:24;;;;;;;;;;;23.50;50.40;;;22.44;48.83;100944.22;12257969;19;20297;-93
2023/06/23 07:50:26;;;;;;;;;;;23.50;50.40;;;22.66;48.96;100982.81;12256807;19;19936;-93
2023/06/23 07:54:32;;;;;;;;;;;23.50;50.90;;;22.75;48.99;100998.66;12257958;19;19910;-94
2023/06/23 07:58:33;;;;;;;;;;;23.50;50.40;;;22.36;48.98;100937.06;12259408;19;19922;-93
2023/06/23 08:02:35;;;;;;;;;;;23.50;50.40;;;22.70;48.74;100992.16;12279151;19;19919;-93
2023/06/23 08:06:37;;;;;;;;;;;23.50;50.40;;;22.83;48.84;101005.03;12247318;19;19918;-92
2023/06/23 08:10:38;;;;;;;;;;;23.60;50.50;;;22.64;48.96;100974.97;12248895;19;19922;-93
2023/06/23 08:14:40;;;;;;;;;;;23.60;50.80;;;22.63;49.00;100986.63;12259416;19;19923;-93
2023/06/23 08:18:42;;;;;;;;;;;23.60;50.70;;;22.67;49.32;100987.13;12261552;19;19922;-94
2023/06/23 08:22:47;;;;;;;;;;;23.60;50.70;;;22.41;48.82;100950.69;12243178;19;19931;-92
2023/06/23 08:26:48;;;;;;;;;;;23.40;50.50;;;22.63;49.33;100991.09;12253118;19;19947;-92
2023/06/23 08:30:50;;;;;;;;;;;23.60;50.90;;;22.65;49.38;101011.25;12245058;19;19915;-93
2023/06/23 08:34:51;;;;;;;;;;;23.60;51.20;;;22.58;49.45;101012.88;12247043;19;19936;-92
2023/06/23 08:38:53;;;;;;;;;;;23.50;51.10;;;22.43;49.21;100985.97;12245372;19;20274;-92
2023/06/23 08:42:54;;;;;;;;;;;23.50;51.40;;;22.56;49.49;101014.03;12242935;19;19919;-93
2023/06/23 08:46:58;;;;;;;;;;;23.40;51.10;;;22.37;49.43;100975.13;12244783;19;20338;-93
2023/06/23 08:51:03;;;;;;;;;;;23.40;51.10;;;22.67;49.73;101027.91;12245018;19;19915;-92
2023/06/23 08:55:05;;;;;;;;;;;23.40;52.20;;;22.38;49.55;100987.44;12245679;19;19923;-92
2023/06/23 08:59:06;;;;;;;;;;;23.40;50.70;;;22.30;49.50;100985.53;12243129;19;19928;-92
2023/06/23 09:03:07;;;;;;;;;;;23.40;51.40;;;22.50;49.70;101018.16;12240406;19;19920;-93
2023/06/23 09:07:09;;;;;;;;;;;23.40;51.40;;;22.37;49.53;100999.09;12248372;19;19947;-93
2023/06/23 09:11:11;;;;;;;;;;;23.40;51.60;;;22.31;49.74;100998.72;12253027;19;19918;-92
2023/06/23 09:15:13;;;;;;;;;;;23.50;51.60;;;22.65;49.81;101059.16;12254820;19;19915;-92
2023/06/23 09:19:15;;;;;;;;;;;23.50;51.60;;;22.59;49.79;101058.97;12251568;19;19918;-93
2023/06/23 09:23:21;;;;;;;;;;;23.40;51.50;;;22.55;49.59;101053.13;12250523;19;20329;-93
2023/06/23 09:27:39;;;;;;;;;;;23.40;51.70;;;22.50;49.83;101042.94;12247273;19;20410;-92
2023/06/23 09:31:41;;;;;;;;;;;23.40;52.40;;;22.59;50.05;101066.94;12252619;19;19962;-92
2023/06/23 09:35:51;;;;;;;;;;;23.40;51.80;;;22.55;50.10;101069.09;12251845;19;19929;-92
2023/06/23 09:39:55;;;;;;;;;;;23.40;51.70;;;22.32;50.07;101034.13;12254909;19;20662;-91
2023/06/23 09:43:57;;;;;;;;;;;23.30;51.50;;;22.43;50.21;101065.81;12251656;19;19915;-91
2023/06/23 09:47:58;;;;;;;;;;;23.30;52.20;;;22.34;50.35;101065.91;12248059;19;19922;-91
2023/06/23 09:52:00;;;;;;;;;;;23.30;52.40;;;22.39;50.04;101080.44;12255215;19;19915;-94
2023/06/23 09:56:03;;;;;;;;;;;23.20;52.30;;;22.37;50.09;101081.56;12262898;19;19932;-94
2023/06/23 10:00:08;;;;;;;;;;;23.20;51.50;;;22.33;50.22;101078.38;12255903;19;20328;-92
2023/06/23 10:04:09;;;;;;;;;;;23.10;52.30;;;22.20;50.25;101069.97;12247881;19;19911;-92
2023/06/23 10:08:12;;;;;;;;;;;23.00;52.60;;;22.22;50.28;101075.94;12247522;19;19925;-90
2023/06/23 10:12:22;;;;;;;;;;;23.00;52.50;;;22.16;50.48;101068.53;12250377;19;19982;-90
2023/06/23 10:16:24;;;;;;;;;;;23.00;53.00;;;22.18;50.71;101074.56;12250998;19;19911;-92
2023/06/23 10:20:26;;;;;;;;;;;23.00;52.40;;;22.07;50.54;101065.81;12252204;19;19918;-93
2023/06/23 10:24:30;;;;;;;;;;;23.00;53.00;;;22.07;50.50;101068.47;12251485;19;20246;-91
2023/06/23 10:28:33;;;;;;;;;;;23.00;52.30;;;22.16;50.64;101095.97;12252222;19;19933;-91
2023/06/23 10:32:36;;;;;;;;;;;23.00;52.40;;;22.19;50.34;101111.66;12249624;19;19919;-91
2023/06/23 10:36:59;;;;;;;;;;;;;;;;;;;;;
2023/06/23 10:46:30;;;;;;;;;;;23.00;52.30;;;21.84;50.62;101067.22;12253618;19;19923;-91
2023/06/23 10:50:48;;;;;;;;;;;23.00;52.70;;;22.14;50.40;101123.72;12254482;19;19926;-94
2023/06/23 10:55:21;;;;;;;;;;;23.00;52.30;;;21.91;50.53;101097.56;12258060;19;19919;-92
2023/06/23 11:05:03;;;;;;;;;;;22.90;52.50;;;21.91;50.76;101102.03;12257689;19;19915;-93
2023/06/23 11:09:25;;;;;;;;;;;22.90;53.00;;;22.08;51.06;101110.03;12251209;19;19956;-93
2023/06/23 11:13:51;;;;;;;;;;;22.90;52.90;;;21.85;51.15;101079.53;12247920;19;19962;-92
2023/06/23 11:18:21;;;;;;;;;;;22.90;52.60;;;22.17;50.82;101148.22;12251655;19;19925;-93
2023/06/23 11:22:40;;;;;;;;;;;22.90;52.40;;;21.93;50.97;101122.19;12247711;19;19918;-92
2023/06/23 11:27:02;;;;;;;;;;;22.90;52.50;;;22.22;50.94;101169.88;12248517;19;19919;-93
2023/06/23 11:35:14;;;;;;;;;;;22.90;53.00;;;21.87;50.80;101106.78;12250292;19;19933;-90
2023/06/23 11:39:16;;;;;;;;;;;23.00;52.70;;;22.06;51.16;101148.41;12252321;19;20029;-91
2023/06/23 11:43:21;;;;;;;;;;;23.00;52.80;;;21.85;51.26;101130.06;12251604;19;19923;-93
2023/06/23 11:47:25;;;;;;;;;;;23.00;53.40;;;21.81;50.98;101128.66;12250026;19;19914;-94
2023/06/23 11:51:26;;;;;;;;;;;22.90;53.70;;;21.88;51.45;101148.38;12256066;19;20517;-90
2023/06/23 11:55:53;;;;;;;;;;;22.90;53.60;;;21.75;51.52;101130.09;12249361;19;19925;-93
2023/06/23 11:59:58;;;;;;;;;;;22.90;53.10;;;;;;12263588;19;19907;-93
2023/06/23 12:03:59;;;;;;;;;;;22.90;53.20;;;21.72;51.47;101135.72;12242592;19;19925;-93
2023/06/23 12:08:04;;;;;;;;;;;22.90;53.20;;;22.15;51.29;101206.06;12246599;19;19911;-93
2023/06/23 12:12:06;;;;;;;;;;;22.90;53.00;;;21.86;51.06;101153.84;12243357;19;19929;-93
2023/06/23 12:16:07;;;;;;;;;;;22.90;52.90;;;22.19;51.39;101204.78;12245609;19;19992;-92
2023/06/23 12:20:09;;;;;;;;;;;22.90;53.00;;;22.22;51.17;101206.31;12245854;19;19918;-91
2023/06/23 12:24:10;;;;;;;;;;;23.00;53.40;;;22.15;51.28;101186.59;12240895;19;19917;-93
2023/06/23 12:28:17;;;;;;;;;;;23.00;53.30;;;22.12;51.69;101182.41;12244897;19;19996;-93
2023/06/23 12:32:19;;;;;;;;;;;23.00;53.20;;;21.86;51.24;101139.72;12252259;19;20332;-93
2023/06/23 12:36:25;;;;;;;;;;;23.00;53.30;;;22.09;51.48;101178.22;12278352;19;19915;-93
2023/06/23 12:40:31;;;;;;;;;;;23.00;53.30;;;22.23;51.28;101197.34;12265857;19;20637;-92
2023/06/23 12:44:34;;;;;;;;;;;23.00;53.80;;;22.26;51.39;101213.03;12281423;19;20499;-93
2023/06/23 12:48:38;;;;;;;;;;;23.00;53.40;;;22.26;51.38;101223.66;12267962;19;19943;-93
2023/06/23 12:52:39;;;;;;;;;;;23.00;53.20;;;22.26;51.74;101223.66;12263525;19;19970;-93
2023/06/23 12:56:41;;;;;;;;;;;23.00;53.30;;;22.05;51.41;101184.81;12280706;19;19934;-94
2023/06/23 13:00:43;;;;;;;;;;;23.00;53.40;;;21.92;51.46;101173.69;12279788;19;20660;-93
2023/06/23 13:04:44;;;;;;;;;;;23.00;53.30;;;21.91;51.72;101182.66;12285906;19;19923;-93
2023/06/23 13:08:47;;;;;;;;;;;23.00;53.20;;;22.13;51.63;101221.31;12284172;19;20258;-94
2023/06/23 13:12:49;;;;;;;;;;;23.00;53.10;;;22.19;51.45;101226.06;12269572;19;20009;-93
2023/06/23 13:16:50;;;;;;;;;;;23.00;53.20;;;22.04;51.73;101220.38;12259357;19;19923;-93
2023/06/23 13:20:52;;;;;;;;;;;23.00;53.30;;;22.18;51.78;101247.47;12290826;19;19929;-93
2023/06/23 13:24:56;;;;;;;;;;;23.00;53.30;;;22.15;51.87;101258.41;12295560;19;19926;-93
2023/06/23 13:28:58;;;;;;;;;;;23.00;53.20;;;21.85;51.83;101223.13;12279201;19;19910;-93
2023/06/23 13:32:59;;;;;;;;;;;22.90;53.20;;;22.11;52.11;101284.47;12266827;19;19918;-93
2023/06/23 13:37:03;;;;;;;;;;;22.90;53.40;;;22.06;51.71;101292.91;12261761;19;19918;-93
2023/06/23 13:41:04;;;;;;;;;;;22.90;53.60;;;22.08;51.81;101300.72;12261287;19;19923;-94
2023/06/23 13:45:07;;;;;;;;;;;22.80;53.30;;;22.06;52.14;101308.00;12259568;19;19907;-94
2023/06/23 13:49:12;;;;;;;;;;;22.80;53.30;;;21.90;52.17;101297.13;12260562;19;19915;-93
2023/06/23 13:53:14;;;;;;;;;;;22.80;53.40;;;21.95;52.30;101327.63;12264998;19;19944;-93
2023/06/23 13:57:16;;;;;;;;;;;22.70;53.60;;;21.76;52.23;101303.75;12271765;19;19932;-92
2023/06/23 14:01:18;;;;;;;;;;;22.70;53.80;;;21.57;52.26;101301.97;12269302;19;20363;-94
2023/06/23 14:05:20;;;;;;;;;;;22.60;54.00;;;21.69;52.12;101332.75;12274616;19;20284;-94
2023/06/23 14:09:22;;;;;;;;;;;22.50;54.00;;;21.56;51.94;101333.03;12265101;19;19982;-94
2023/06/23 14:13:23;;;;;;;;;;;22.40;54.30;;;21.58;51.97;101360.31;12266409;19;19911;-93
2023/06/23 14:17:26;;;;;;;;;;;22.40;53.30;;;21.37;52.25;101344.50;12266722;19;19965;-92
2023/06/23 14:21:27;;;;;;;;;;;22.30;53.20;;;21.42;52.22;101373.31;12268468;19;20246;-93
2023/06/23 14:25:30;;;;;;;;;;;22.30;53.40;;;21.39;52.34;101374.44;12279685;19;19927;-94
2023/06/23 14:29:31;;;;;;;;;;;22.20;53.40;;;21.33;52.09;101377.63;12284149;19;20329;-93
2023/06/23 14:33:34;;;;;;;;;;;22.20;53.20;;;21.08;52.07;101340.97;12271197;19;19922;-94
2023/06/23 14:37:37;;;;;;;;;;;22.10;53.50;;;21.36;52.11;101403.91;12261756;19;19926;-93
2023/06/23 14:41:39;;;;;;;;;;;22.20;53.40;;;21.19;52.14;101385.97;12258474;19;19915;-93
2023/06/23 14:45:42;;;;;;;;;;;22.00;53.40;;;21.01;52.45;101364.59;12248408;19;19931;-93
2023/06/23 14:49:43;;;;;;;;;;;22.00;53.30;;;21.34;52.50;101413.00;12245616;19;19928;-92
2023/06/23 14:53:48;;;;;;;;;;;22.00;53.40;;;21.18;52.20;101397.59;12248035;19;20356;-93
2023/06/23 14:57:50;;;;;;;;;;;22.10;53.50;;;21.08;51.97;101376.31;12246464;19;20337;-90
2023/06/23 15:01:52;;;;;;;;;;;21.90;53.30;;;21.17;52.25;101410.03;12246611;19;19965;-92
2023/06/23 15:05:54;;;;;;;;;;;22.00;53.40;;;20.87;52.51;101355.16;12248000;19;19914;-92
2023/06/23 15:09:55;;;;;;;;;;;22.00;53.50;;;20.98;52.38;101383.41;12253596;19;19919;-92
2023/06/23 15:13:57;;;;;;;;;;;22.00;53.80;;;20.98;52.47;101394.03;12247550;19;20385;-92
2023/06/23 15:17:59;;;;;;;;;;;22.00;54.40;;;21.03;52.62;101426.34;12258206;19;19939;-92
2023/06/23 15:22:02;;;;;;;;;;;21.90;53.50;;;20.66;52.66;101380.97;12255346;19;20333;-93
2023/06/23 15:26:03;;;;;;;;;;;21.90;53.90;;;20.95;52.71;101463.34;12263289;19;19922;-93
2023/06/23 15:30:09;;;;;;;;;;;21.90;53.70;;;20.67;52.53;101425.94;12263209;19;19915;-94
2023/06/23 15:34:12;;;;;;;;;;;21.80;53.80;;;20.99;52.66;101491.34;12276366;19;19926;-94
2023/06/23 15:38:15;;;;;;;;;;;21.70;53.50;;;20.64;52.46;101442.13;12278063;19;20243;-93
2023/06/23 15:42:16;;;;;;;;;;;21.70;53.60;;;20.82;52.35;101479.53;12276497;19;19950;-94
2023/06/23 15:46:21;;;;;;;;;;;21.70;53.90;;;20.58;52.38;101444.47;12273604;19;19907;-94
2023/06/23 15:50:23;;;;;;;;;;;21.70;53.70;;;20.85;52.82;101491.72;12274741;19;19947;-95
2023/06/23 15:54:25;;;;;;;;;;;21.70;53.70;;;20.94;52.82;101498.88;12265430;19;19918;-94
2023/06/23 15:58:27;;;;;;;;;;;21.70;53.70;;;20.76;52.77;101472.91;12271132;19;19919;-94
2023/06/23 16:02:28;;;;;;;;;;;21.70;53.80;;;20.93;52.60;101500.69;12272348;19;19922;-93
2023/06/23 16:06:31;;;;;;;;;;;21.80;53.80;;;20.75;52.48;101470.41;12270896;19;20184;-92
2023/06/23 16:10:33;;;;;;;;;;;21.80;53.80;;;20.92;52.79;101501.63;12275306;19;19927;-93
2023/06/23 16:14:35;;;;;;;;;;;21.80;53.80;;;20.78;52.67;101483.41;12269105;19;19919;-94
2023/06/23 16:18:37;;;;;;;;;;;21.80;54.00;;;20.76;52.83;101491.50;12280319;19;19919;-94
2023/06/23 16:22:38;;;;;;;;;;;21.90;53.80;;;20.90;52.94;101510.72;12276993;19;19915;-93
2023/06/23 16:26:40;;;;;;;;;;;21.80;53.70;;;20.96;53.04;101520.81;12290234;19;19962;-94
2023/06/23 16:30:43;;;;;;;;;;;21.80;53.70;;;21.01;52.74;101537.19;12286969;19;19918;-93
2023/06/23 16:34:45;;;;;;;;;;;21.90;53.70;;;21.07;52.98;101534.00;12275795;19;19926;-94
2023/06/23 16:38:46;;;;;;;;;;;21.90;53.70;;;20.90;53.04;101494.78;12289040;19;19911;-94
2023/06/23 16:42:48;;;;;;;;;;;21.90;53.80;;;20.83;52.80;101493.66;12286828;19;19914;-94
2023/06/23 16:46:51;;;;;;;;;;;22.00;53.80;;;20.89;53.05;101511.69;12275245;19;19919;-94
2023/06/23 16:50:53;;;;;;;;;;;21.90;53.80;;;20.76;53.09;101494.16;12294204;19;19923;-94
2023/06/23 17:20:32;;;;;;;;;;;22.00;53.70;;;21.15;53.22;101565.22;12177634;19;19927;-95
2023/06/23 18:11:42;;;;;;;;;;;22.20;53.90;;;21.30;53.21;101585.13;12297844;19;20415;-95
2023/06/23 18:20:02;;;;;;;;;;;22.30;54.10;;;21.06;53.50;101553.56;12289896;19;19907;-96
2023/06/23 18:24:05;;;;;;;;;;;22.30;54.10;;;21.45;53.19;101612.22;12302217;19;19911;-94
2023/06/23 20:15:37;;;;;;;;;;;22.70;54.60;;;21.51;53.74;101666.66;12284642;19;19915;-93
2023/06/23 20:19:39;;;;;;;;;;;22.70;54.70;;;21.76;53.73;101707.91;12287387;19;19910;-93
2023/06/23 20:23:40;;;;;;;;;;;22.60;54.60;;;21.39;53.82;101649.97;12287202;19;19927;-92
2023/06/23 20:27:42;;;;;;;;;;;22.60;54.60;;;21.47;53.81;101674.06;12288904;19;19911;-92
2023/06/23 20:31:47;;;;;;;;;;;22.60;54.60;;;21.79;54.25;101728.91;12294964;19;19911;-93
2023/06/23 20:35:51;;;;;;;;;;;22.60;54.60;;;21.62;53.95;101703.78;12285021;19;19915;-95
2023/06/23 20:39:54;;;;;;;;;;;22.60;54.60;;;21.52;54.01;101677.16;12297973;19;19915;-95
2023/06/23 20:43:59;;;;;;;;;;;22.70;54.60;;;21.47;53.95;101687.34;12295221;19;19910;-95
2023/06/23 20:48:04;;;;;;;;;;;22.70;55.00;;;21.59;54.12;101712.03;12254119;19;19918;-93
2023/06/23 20:52:06;;;;;;;;;;;22.60;54.50;;;21.65;54.31;101717.63;12280178;19;19930;-93
2023/06/23 20:56:08;;;;;;;;;;;22.60;54.50;;;21.21;54.13;101655.00;12277670;19;19934;-93
2023/06/23 21:00:10;;;;;;;;;;;22.60;54.60;;;21.51;53.90;101707.34;12279582;19;19915;-94
2023/06/23 21:04:12;;;;;;;;;;;22.60;54.40;;;21.41;54.00;101679.88;12292604;19;19984;-93
2023/06/23 21:08:14;;;;;;;;;;;22.60;54.50;;;21.36;53.97;101666.13;12292234;19;19922;-93
2023/06/23 21:12:16;;;;;;;;;;;22.60;54.50;;;21.41;53.80;101685.19;12291620;19;19929;-93
2023/06/23 21:16:18;;;;;;;;;;;22.60;54.50;;;21.51;54.19;101695.91;12299452;19;19931;-94
2023/06/23 21:20:23;;;;;;;;;;;22.60;54.40;;;21.50;53.99;101700.38;12303405;19;19918;-92
2023/06/23 21:24:24;;;;;;;;;;;22.60;54.40;;;21.71;54.17;101737.56;12296989;19;19935;-93
2023/06/23 21:28:26;;;;;;;;;;;22.60;54.50;;;21.54;54.30;101706.25;12298462;19;19935;-94
2023/06/23 21:32:28;;;;;;;;;;;22.50;54.40;;;21.34;54.18;101678.72;12302690;19;19921;-95
2023/06/23 21:36:29;;;;;;;;;;;22.50;54.40;;;21.64;54.16;101728.41;12304633;19;19922;-94
2023/06/23 21:40:35;;;;;;;;;;;22.60;54.40;;;21.44;54.24;101698.22;12301839;19;19918;-95
2023/06/23 21:44:42;;;;;;;;;;;22.50;54.40;;;21.70;54.14;101740.34;12289466;19;19926;-95
2023/06/23 21:49:12;;;;;;;;;;;22.50;54.40;;;21.68;54.33;101742.28;12289318;19;19926;-93
2023/06/23 21:53:15;;;;;;;;;;;22.50;54.30;;;21.51;54.19;101718.00;12291493;19;20364;-93
2023/06/23 21:57:18;;;;;;;;;;;22.50;54.40;;;21.32;54.03;101696.59;12294839;19;19911;-94
2023/06/23 22:01:19;;;;;;;;;;;22.50;54.40;;;21.52;54.31;101730.31;12296044;19;19955;-93